sensor_id;sensor_type;location;lat;lon;timestamp;pressure;altitude;pressure_sealevel;temperature
68911;BMP180;55953;51.650;-0.522;2023-02-19T00:02:27;101300.80;;;9.90
68911;BMP180;55953;51.650;-0.522;2023-02-19T00:04:55;101303.20;;;9.94
68911;BMP180;55953;51.650;-0.522;2023-02-19T00:07:23;101302.60;;;10.00
68911;BMP180;55953;51.650;-0.522;2023-02-19T00:09:50;101300.20;;;10.00
68911;BMP180;55953;51.650;-0.522;2023-02-19T00:12:18;101303.40;;;10.00
68911;BMP180;55953;51.650;-0.522;2023-02-19T00:14:46;101305.60;;;10.00
68911;BMP180;55953;51.650;-0.522;2023-02-19T00:17:14;101307.40;;;10.00
68911;BMP180;55953;51.650;-0.522;2023-02-19T00:19:42;101307.80;;;10.00
68911;BMP180;55953;51.650;-0.522;2023-02-19T00:22:11;101308.20;;;10.00
68911;BMP180;55953;51.650;-0.522;2023-02-19T00:24:39;101311.20;;;10.02
68911;BMP180;55953;51.650;-0.522;2023-02-19T00:27:07;101320.80;;;10.00
68911;BMP180;55953;51.650;-0.522;2023-02-19T00:29:34;101328.00;;;10.02
68911;BMP180;55953;51.650;-0.522;2023-02-19T00:32:03;101321.80;;;10.06
68911;BMP180;55953;51.650;-0.522;2023-02-19T00:34:31;101322.40;;;10.00
68911;BMP180;55953;51.650;-0.522;2023-02-19T00:36:59;101328.80;;;10.00
68911;BMP180;55953;51.650;-0.522;2023-02-19T00:39:27;101331.40;;;9.90
68911;BMP180;55953;51.650;-0.522;2023-02-19T00:41:55;101334.60;;;9.88
68911;BMP180;55953;51.650;-0.522;2023-02-19T00:44:23;101333.00;;;9.80
68911;BMP180;55953;51.650;-0.522;2023-02-19T00:46:50;101340.40;;;9.72
68911;BMP180;55953;51.650;-0.522;2023-02-19T00:49:21;101344.20;;;9.70
68911;BMP180;55953;51.650;-0.522;2023-02-19T00:51:51;101345.20;;;9.70
68911;BMP180;55953;51.650;-0.522;2023-02-19T00:54:21;101346.20;;;9.70
68911;BMP180;55953;51.650;-0.522;2023-02-19T00:56:50;101349.60;;;9.66
68911;BMP180;55953;51.650;-0.522;2023-02-19T00:59:18;101359.60;;;9.64
68911;BMP180;55953;51.650;-0.522;2023-02-19T01:01:46;101359.00;;;9.60
68911;BMP180;55953;51.650;-0.522;2023-02-19T01:04:14;101358.80;;;9.60
68911;BMP180;55953;51.650;-0.522;2023-02-19T01:06:43;101353.40;;;9.60
68911;BMP180;55953;51.650;-0.522;2023-02-19T01:09:10;101360.40;;;9.60
68911;BMP180;55953;51.650;-0.522;2023-02-19T01:11:39;101366.40;;;9.60
68911;BMP180;55953;51.650;-0.522;2023-02-19T01:14:08;101366.60;;;9.60
68911;BMP180;55953;51.650;-0.522;2023-02-19T01:16:37;101375.00;;;9.60
68911;BMP180;55953;51.650;-0.522;2023-02-19T01:19:05;101382.80;;;9.60
68911;BMP180;55953;51.650;-0.522;2023-02-19T01:21:33;101380.60;;;9.60
68911;BMP180;55953;51.650;-0.522;2023-02-19T01:24:01;101377.40;;;9.60
68911;BMP180;55953;51.650;-0.522;2023-02-19T01:26:31;101375.80;;;9.54
68911;BMP180;55953;51.650;-0.522;2023-02-19T01:29:00;101377.00;;;9.50
68911;BMP180;55953;51.650;-0.522;2023-02-19T01:31:29;101382.80;;;9.50
68911;BMP180;55953;51.650;-0.522;2023-02-19T01:34:00;101380.60;;;9.42
68911;BMP180;55953;51.650;-0.522;2023-02-19T01:36:32;101381.00;;;9.40
68911;BMP180;55953;51.650;-0.522;2023-02-19T01:39:03;101381.60;;;9.34
68911;BMP180;55953;51.650;-0.522;2023-02-19T01:41:35;101389.80;;;9.30
68911;BMP180;55953;51.650;-0.522;2023-02-19T01:46:45;101386.80;;;9.20
68911;BMP180;55953;51.650;-0.522;2023-02-19T01:49:42;101387.20;;;9.20
68911;BMP180;55953;51.650;-0.522;2023-02-19T01:52:29;101386.80;;;9.20
68911;BMP180;55953;51.650;-0.522;2023-02-19T01:55:04;101390.40;;;9.20
68911;BMP180;55953;51.650;-0.522;2023-02-19T01:57:41;101392.80;;;9.20
68911;BMP180;55953;51.650;-0.522;2023-02-19T02:00:14;101392.00;;;9.20
68911;BMP180;55953;51.650;-0.522;2023-02-19T02:02:48;101393.40;;;9.10
68911;BMP180;55953;51.650;-0.522;2023-02-19T02:06:00;101391.60;;;9.10
68911;BMP180;55953;51.650;-0.522;2023-02-19T02:08:30;101384.80;;;9.16
68911;BMP180;55953;51.650;-0.522;2023-02-19T02:11:20;101390.60;;;9.14
68911;BMP180;55953;51.650;-0.522;2023-02-19T02:13:49;101395.80;;;9.10
68911;BMP180;55953;51.650;-0.522;2023-02-19T02:16:53;101396.40;;;9.10
68911;BMP180;55953;51.650;-0.522;2023-02-19T02:22:26;101408.20;;;9.10
68911;BMP180;55953;51.650;-0.522;2023-02-19T02:30:42;101416.00;;;9.10
68911;BMP180;55953;51.650;-0.522;2023-02-19T02:33:41;101418.80;;;9.10
68911;BMP180;55953;51.650;-0.522;2023-02-19T02:36:28;101420.20;;;9.10
68911;BMP180;55953;51.650;-0.522;2023-02-19T02:39:00;101426.60;;;9.10
68911;BMP180;55953;51.650;-0.522;2023-02-19T02:41:32;101429.00;;;9.08
68911;BMP180;55953;51.650;-0.522;2023-02-19T02:44:00;101429.40;;;9.10
68911;BMP180;55953;51.650;-0.522;2023-02-19T02:46:34;101429.80;;;9.10
68911;BMP180;55953;51.650;-0.522;2023-02-19T02:49:13;101430.80;;;9.02
68911;BMP180;55953;51.650;-0.522;2023-02-19T02:51:49;101434.60;;;9.10
68911;BMP180;55953;51.650;-0.522;2023-02-19T02:54:28;101441.40;;;9.10
68911;BMP180;55953;51.650;-0.522;2023-02-19T02:57:18;101443.60;;;9.20
68911;BMP180;55953;51.650;-0.522;2023-02-19T02:59:50;101439.60;;;9.24
68911;BMP180;55953;51.650;-0.522;2023-02-19T03:02:27;101439.60;;;9.30
68911;BMP180;55953;51.650;-0.522;2023-02-19T03:05:19;101441.80;;;9.40
68911;BMP180;55953;51.650;-0.522;2023-02-19T03:08:16;101443.40;;;9.40
68911;BMP180;55953;51.650;-0.522;2023-02-19T03:10:57;101442.60;;;9.40
68911;BMP180;55953;51.650;-0.522;2023-02-19T03:13:47;101446.80;;;9.40
68911;BMP180;55953;51.650;-0.522;2023-02-19T03:16:38;101437.60;;;9.40
68911;BMP180;55953;51.650;-0.522;2023-02-19T03:19:29;101444.40;;;9.40
68911;BMP180;55953;51.650;-0.522;2023-02-19T03:22:16;101451.60;;;9.30
68911;BMP180;55953;51.650;-0.522;2023-02-19T03:25:03;101461.60;;;9.20
68911;BMP180;55953;51.650;-0.522;2023-02-19T03:27:52;101454.00;;;9.20
68911;BMP180;55953;51.650;-0.522;2023-02-19T03:30:27;101451.00;;;9.10
68911;BMP180;55953;51.650;-0.522;2023-02-19T03:35:48;101456.40;;;9.02
68911;BMP180;55953;51.650;-0.522;2023-02-19T03:38:27;101465.20;;;9.00
68911;BMP180;55953;51.650;-0.522;2023-02-19T03:41:19;101464.80;;;9.00
68911;BMP180;55953;51.650;-0.522;2023-02-19T03:44:06;101476.00;;;9.00
68911;BMP180;55953;51.650;-0.522;2023-02-19T03:46:55;101476.00;;;9.00
68911;BMP180;55953;51.650;-0.522;2023-02-19T03:55:43;101485.00;;;9.00
68911;BMP180;55953;51.650;-0.522;2023-02-19T03:59:02;101493.40;;;9.10
68911;BMP180;55953;51.650;-0.522;2023-02-19T04:02:13;101499.40;;;9.10
68911;BMP180;55953;51.650;-0.522;2023-02-19T04:04:58;101499.20;;;9.10
68911;BMP180;55953;51.650;-0.522;2023-02-19T04:07:36;101497.40;;;9.10
68911;BMP180;55953;51.650;-0.522;2023-02-19T04:10:07;101504.40;;;9.14
68911;BMP180;55953;51.650;-0.522;2023-02-19T04:12:43;101500.40;;;9.20
68911;BMP180;55953;51.650;-0.522;2023-02-19T04:15:18;101491.40;;;9.20
68911;BMP180;55953;51.650;-0.522;2023-02-19T04:18:15;101493.40;;;9.30
68911;BMP180;55953;51.650;-0.522;2023-02-19T04:20:47;101497.20;;;9.32
68911;BMP180;55953;51.650;-0.522;2023-02-19T04:23:19;101506.60;;;9.40
68911;BMP180;55953;51.650;-0.522;2023-02-19T04:25:54;101522.80;;;9.40
68911;BMP180;55953;51.650;-0.522;2023-02-19T04:28:23;101519.20;;;9.40
68911;BMP180;55953;51.650;-0.522;2023-02-19T04:30:51;101522.60;;;9.42
68911;BMP180;55953;51.650;-0.522;2023-02-19T04:33:19;101529.00;;;9.50
68911;BMP180;55953;51.650;-0.522;2023-02-19T04:35:47;101531.40;;;9.50
68911;BMP180;55953;51.650;-0.522;2023-02-19T04:38:14;101534.20;;;9.50
68911;BMP180;55953;51.650;-0.522;2023-02-19T04:40:42;101547.00;;;9.50
68911;BMP180;55953;51.650;-0.522;2023-02-19T04:43:10;101554.20;;;9.50
68911;BMP180;55953;51.650;-0.522;2023-02-19T04:45:38;101560.20;;;9.50
68911;BMP180;55953;51.650;-0.522;2023-02-19T04:48:06;101558.80;;;9.50
68911;BMP180;55953;51.650;-0.522;2023-02-19T04:50:37;101551.40;;;9.50
68911;BMP180;55953;51.650;-0.522;2023-02-19T04:53:06;101552.00;;;9.50
68911;BMP180;55953;51.650;-0.522;2023-02-19T04:55:38;101554.60;;;9.50
68911;BMP180;55953;51.650;-0.522;2023-02-19T04:58:06;101559.20;;;9.50
68911;BMP180;55953;51.650;-0.522;2023-02-19T05:00:34;101554.20;;;9.48
68911;BMP180;55953;51.650;-0.522;2023-02-19T05:03:01;101560.80;;;9.40
68911;BMP180;55953;51.650;-0.522;2023-02-19T05:05:29;101555.20;;;9.40
68911;BMP180;55953;51.650;-0.522;2023-02-19T05:07:57;101563.80;;;9.40
68911;BMP180;55953;51.650;-0.522;2023-02-19T05:10:25;101567.60;;;9.40
68911;BMP180;55953;51.650;-0.522;2023-02-19T05:12:54;101578.20;;;9.40
68911;BMP180;55953;51.650;-0.522;2023-02-19T05:15:24;101580.00;;;9.42
68911;BMP180;55953;51.650;-0.522;2023-02-19T05:17:52;101577.60;;;9.40
68911;BMP180;55953;51.650;-0.522;2023-02-19T05:20:20;101580.60;;;9.40
68911;BMP180;55953;51.650;-0.522;2023-02-19T05:22:49;101588.00;;;9.50
68911;BMP180;55953;51.650;-0.522;2023-02-19T05:25:17;101599.60;;;9.50
68911;BMP180;55953;51.650;-0.522;2023-02-19T05:27:45;101609.60;;;9.50
68911;BMP180;55953;51.650;-0.522;2023-02-19T05:30:13;101598.80;;;9.50
68911;BMP180;55953;51.650;-0.522;2023-02-19T05:32:41;101601.60;;;9.50
68911;BMP180;55953;51.650;-0.522;2023-02-19T05:35:09;101607.20;;;9.50
68911;BMP180;55953;51.650;-0.522;2023-02-19T05:37:37;101599.80;;;9.48
68911;BMP180;55953;51.650;-0.522;2023-02-19T05:40:05;101603.80;;;9.40
68911;BMP180;55953;51.650;-0.522;2023-02-19T05:42:33;101603.00;;;9.30
68911;BMP180;55953;51.650;-0.522;2023-02-19T05:45:00;101602.20;;;9.22
68911;BMP180;55953;51.650;-0.522;2023-02-19T05:47:28;101604.20;;;9.20
68911;BMP180;55953;51.650;-0.522;2023-02-19T05:49:56;101605.00;;;9.10
68911;BMP180;55953;51.650;-0.522;2023-02-19T05:52:24;101600.20;;;9.08
68911;BMP180;55953;51.650;-0.522;2023-02-19T05:54:52;101599.20;;;9.00
68911;BMP180;55953;51.650;-0.522;2023-02-19T05:57:20;101593.80;;;9.00
68911;BMP180;55953;51.650;-0.522;2023-02-19T05:59:48;101599.40;;;8.90
68911;BMP180;55953;51.650;-0.522;2023-02-19T06:02:15;101612.20;;;8.90
68911;BMP180;55953;51.650;-0.522;2023-02-19T06:04:43;101606.60;;;8.90
68911;BMP180;55953;51.650;-0.522;2023-02-19T06:07:11;101611.20;;;8.90
68911;BMP180;55953;51.650;-0.522;2023-02-19T06:09:39;101618.20;;;8.90
68911;BMP180;55953;51.650;-0.522;2023-02-19T06:12:07;101633.40;;;8.90
68911;BMP180;55953;51.650;-0.522;2023-02-19T06:14:34;101634.40;;;8.88
68911;BMP180;55953;51.650;-0.522;2023-02-19T06:17:02;101626.40;;;8.80
68911;BMP180;55953;51.650;-0.522;2023-02-19T06:19:30;101630.60;;;8.80
68911;BMP180;55953;51.650;-0.522;2023-02-19T06:21:58;101633.40;;;8.74
68911;BMP180;55953;51.650;-0.522;2023-02-19T06:24:26;101636.80;;;8.70
68911;BMP180;55953;51.650;-0.522;2023-02-19T06:26:54;101639.80;;;8.70
68911;BMP180;55953;51.650;-0.522;2023-02-19T06:29:22;101639.80;;;8.62
68911;BMP180;55953;51.650;-0.522;2023-02-19T06:31:50;101643.20;;;8.60
68911;BMP180;55953;51.650;-0.522;2023-02-19T06:34:18;101649.60;;;8.60
68911;BMP180;55953;51.650;-0.522;2023-02-19T06:36:48;101647.80;;;8.52
68911;BMP180;55953;51.650;-0.522;2023-02-19T06:39:16;101647.80;;;8.50
68911;BMP180;55953;51.650;-0.522;2023-02-19T06:41:44;101655.80;;;8.50
68911;BMP180;55953;51.650;-0.522;2023-02-19T06:44:12;101655.60;;;8.42
68911;BMP180;55953;51.650;-0.522;2023-02-19T06:46:40;101667.00;;;8.42
68911;BMP180;55953;51.650;-0.522;2023-02-19T06:49:08;101668.80;;;8.42
68911;BMP180;55953;51.650;-0.522;2023-02-19T06:51:36;101667.40;;;8.50
68911;BMP180;55953;51.650;-0.522;2023-02-19T06:54:03;101664.80;;;8.48
68911;BMP180;55953;51.650;-0.522;2023-02-19T06:56:40;101664.60;;;8.50
68911;BMP180;55953;51.650;-0.522;2023-02-19T06:59:14;101670.00;;;8.50
68911;BMP180;55953;51.650;-0.522;2023-02-19T07:01:45;101672.20;;;8.40
68911;BMP180;55953;51.650;-0.522;2023-02-19T07:04:13;101667.20;;;8.40
68911;BMP180;55953;51.650;-0.522;2023-02-19T07:06:41;101660.80;;;8.50
68911;BMP180;55953;51.650;-0.522;2023-02-19T07:09:10;101673.20;;;8.50
68911;BMP180;55953;51.650;-0.522;2023-02-19T07:11:38;101688.60;;;8.50
68911;BMP180;55953;51.650;-0.522;2023-02-19T07:14:14;101689.80;;;8.60
68911;BMP180;55953;51.650;-0.522;2023-02-19T07:16:43;101695.60;;;8.60
68911;BMP180;55953;51.650;-0.522;2023-02-19T07:19:11;101705.20;;;8.60
68911;BMP180;55953;51.650;-0.522;2023-02-19T07:21:40;101708.20;;;8.70
68911;BMP180;55953;51.650;-0.522;2023-02-19T07:24:09;101703.00;;;8.70
68911;BMP180;55953;51.650;-0.522;2023-02-19T07:26:37;101706.00;;;8.70
68911;BMP180;55953;51.650;-0.522;2023-02-19T07:29:05;101713.40;;;8.70
68911;BMP180;55953;51.650;-0.522;2023-02-19T07:31:34;101734.00;;;8.70
68911;BMP180;55953;51.650;-0.522;2023-02-19T07:34:02;101737.80;;;8.78
68911;BMP180;55953;51.650;-0.522;2023-02-19T07:36:30;101733.60;;;8.80
68911;BMP180;55953;51.650;-0.522;2023-02-19T07:38:58;101728.60;;;8.80
68911;BMP180;55953;51.650;-0.522;2023-02-19T07:41:27;101731.60;;;8.80
68911;BMP180;55953;51.650;-0.522;2023-02-19T07:43:57;101737.20;;;8.74
68911;BMP180;55953;51.650;-0.522;2023-02-19T07:46:25;101740.80;;;8.78
68911;BMP180;55953;51.650;-0.522;2023-02-19T07:48:53;101757.20;;;8.80
68911;BMP180;55953;51.650;-0.522;2023-02-19T07:51:21;101757.80;;;8.80
68911;BMP180;55953;51.650;-0.522;2023-02-19T07:53:50;101752.80;;;8.80
68911;BMP180;55953;51.650;-0.522;2023-02-19T07:56:19;101755.80;;;8.80
68911;BMP180;55953;51.650;-0.522;2023-02-19T07:58:48;101766.20;;;8.80
68911;BMP180;55953;51.650;-0.522;2023-02-19T08:01:20;101767.20;;;8.84
68911;BMP180;55953;51.650;-0.522;2023-02-19T08:04:11;101759.60;;;8.90
68911;BMP180;55953;51.650;-0.522;2023-02-19T08:06:41;101765.60;;;8.90
68911;BMP180;55953;51.650;-0.522;2023-02-19T08:09:09;101770.20;;;8.90
68911;BMP180;55953;51.650;-0.522;2023-02-19T08:11:37;101775.00;;;8.90
68911;BMP180;55953;51.650;-0.522;2023-02-19T08:14:28;101782.00;;;8.90
68911;BMP180;55953;51.650;-0.522;2023-02-19T08:16:56;101805.60;;;8.90
68911;BMP180;55953;51.650;-0.522;2023-02-19T08:19:24;101820.40;;;8.90
68911;BMP180;55953;51.650;-0.522;2023-02-19T08:21:52;101835.80;;;8.90
68911;BMP180;55953;51.650;-0.522;2023-02-19T08:24:20;101855.80;;;8.90
68911;BMP180;55953;51.650;-0.522;2023-02-19T08:26:48;101853.80;;;8.90
68911;BMP180;55953;51.650;-0.522;2023-02-19T08:29:16;101838.60;;;8.90
68911;BMP180;55953;51.650;-0.522;2023-02-19T08:31:44;101834.40;;;8.90
68911;BMP180;55953;51.650;-0.522;2023-02-19T08:34:12;101825.80;;;8.90
68911;BMP180;55953;51.650;-0.522;2023-02-19T08:36:40;101829.80;;;8.80
68911;BMP180;55953;51.650;-0.522;2023-02-19T08:39:08;101843.20;;;8.90
68911;BMP180;55953;51.650;-0.522;2023-02-19T08:41:35;101838.00;;;8.90
68911;BMP180;55953;51.650;-0.522;2023-02-19T08:44:03;101832.40;;;8.90
68911;BMP180;55953;51.650;-0.522;2023-02-19T08:46:31;101836.40;;;8.90
68911;BMP180;55953;51.650;-0.522;2023-02-19T08:49:01;101827.00;;;8.90
68911;BMP180;55953;51.650;-0.522;2023-02-19T08:51:29;101830.20;;;8.90
68911;BMP180;55953;51.650;-0.522;2023-02-19T08:53:57;101839.40;;;8.90
68911;BMP180;55953;51.650;-0.522;2023-02-19T08:56:24;101839.80;;;9.00
68911;BMP180;55953;51.650;-0.522;2023-02-19T08:58:52;101839.60;;;9.00
68911;BMP180;55953;51.650;-0.522;2023-02-19T09:01:20;101842.00;;;9.10
68911;BMP180;55953;51.650;-0.522;2023-02-19T09:03:48;101833.00;;;9.12
68911;BMP180;55953;51.650;-0.522;2023-02-19T09:06:19;101823.20;;;9.20
68911;BMP180;55953;51.650;-0.522;2023-02-19T09:08:47;101831.20;;;9.20
68911;BMP180;55953;51.650;-0.522;2023-02-19T09:11:15;101835.60;;;9.20
68911;BMP180;55953;51.650;-0.522;2023-02-19T09:13:43;101834.00;;;9.20
68911;BMP180;55953;51.650;-0.522;2023-02-19T09:16:11;101820.80;;;9.20
68911;BMP180;55953;51.650;-0.522;2023-02-19T09:18:39;101809.40;;;9.20
68911;BMP180;55953;51.650;-0.522;2023-02-19T09:21:07;101819.60;;;9.20
68911;BMP180;55953;51.650;-0.522;2023-02-19T09:23:36;101833.20;;;9.30
68911;BMP180;55953;51.650;-0.522;2023-02-19T09:26:05;101842.00;;;9.40
68911;BMP180;55953;51.650;-0.522;2023-02-19T09:28:36;101846.60;;;9.40
68911;BMP180;55953;51.650;-0.522;2023-02-19T09:31:09;101853.80;;;9.50
68911;BMP180;55953;51.650;-0.522;2023-02-19T09:33:43;101853.80;;;9.60
68911;BMP180;55953;51.650;-0.522;2023-02-19T09:36:13;101847.00;;;9.60
68911;BMP180;55953;51.650;-0.522;2023-02-19T09:38:41;101848.00;;;9.60
68911;BMP180;55953;51.650;-0.522;2023-02-19T09:41:24;101862.20;;;9.60
68911;BMP180;55953;51.650;-0.522;2023-02-19T09:44:01;101889.60;;;9.74
68911;BMP180;55953;51.650;-0.522;2023-02-19T09:46:50;101894.80;;;9.90
68911;BMP180;55953;51.650;-0.522;2023-02-19T09:49:35;101909.20;;;9.80
68911;BMP180;55953;51.650;-0.522;2023-02-19T09:52:18;101906.20;;;9.70
68911;BMP180;55953;51.650;-0.522;2023-02-19T09:54:49;101908.20;;;9.70
68911;BMP180;55953;51.650;-0.522;2023-02-19T09:57:20;101902.00;;;9.80
68911;BMP180;55953;51.650;-0.522;2023-02-19T09:59:56;101903.40;;;9.76
68911;BMP180;55953;51.650;-0.522;2023-02-19T10:02:27;101891.20;;;9.80
68911;BMP180;55953;51.650;-0.522;2023-02-19T10:04:57;101885.00;;;9.80
68911;BMP180;55953;51.650;-0.522;2023-02-19T10:07:42;101871.00;;;9.90
68911;BMP180;55953;51.650;-0.522;2023-02-19T10:12:48;101874.20;;;10.24
68911;BMP180;55953;51.650;-0.522;2023-02-19T10:15:30;101893.40;;;10.32
68911;BMP180;55953;51.650;-0.522;2023-02-19T10:18:02;101894.60;;;10.32
68911;BMP180;55953;51.650;-0.522;2023-02-19T10:20:31;101894.40;;;10.46
68911;BMP180;55953;51.650;-0.522;2023-02-19T10:23:04;101896.40;;;10.64
68911;BMP180;55953;51.650;-0.522;2023-02-19T10:25:34;101894.60;;;10.70
68911;BMP180;55953;51.650;-0.522;2023-02-19T10:28:05;101894.00;;;10.80
68911;BMP180;55953;51.650;-0.522;2023-02-19T10:30:34;101892.80;;;10.90
68911;BMP180;55953;51.650;-0.522;2023-02-19T10:33:15;101899.00;;;11.10
68911;BMP180;55953;51.650;-0.522;2023-02-19T10:36:06;101905.00;;;11.22
68911;BMP180;55953;51.650;-0.522;2023-02-19T10:38:38;101912.20;;;11.40
68911;BMP180;55953;51.650;-0.522;2023-02-19T10:41:15;101918.00;;;11.40
68911;BMP180;55953;51.650;-0.522;2023-02-19T10:44:09;101915.00;;;11.40
68911;BMP180;55953;51.650;-0.522;2023-02-19T10:46:44;101908.20;;;11.40
68911;BMP180;55953;51.650;-0.522;2023-02-19T10:51:53;101913.60;;;11.50
68911;BMP180;55953;51.650;-0.522;2023-02-19T10:54:30;101917.20;;;11.50
68911;BMP180;55953;51.650;-0.522;2023-02-19T10:59:54;101919.80;;;11.50
68911;BMP180;55953;51.650;-0.522;2023-02-19T11:02:26;101913.00;;;11.60
68911;BMP180;55953;51.650;-0.522;2023-02-19T11:07:48;101925.40;;;11.56
68911;BMP180;55953;51.650;-0.522;2023-02-19T11:10:27;101923.40;;;11.46
68911;BMP180;55953;51.650;-0.522;2023-02-19T11:12:59;101929.00;;;11.52
68911;BMP180;55953;51.650;-0.522;2023-02-19T11:15:33;101929.60;;;11.70
68911;BMP180;55953;51.650;-0.522;2023-02-19T11:18:30;101941.40;;;11.60
68911;BMP180;55953;51.650;-0.522;2023-02-19T11:21:02;101940.20;;;11.30
68911;BMP180;55953;51.650;-0.522;2023-02-19T11:23:44;101946.00;;;11.20
68911;BMP180;55953;51.650;-0.522;2023-02-19T11:26:22;101956.20;;;11.30
68911;BMP180;55953;51.650;-0.522;2023-02-19T11:28:57;101954.40;;;11.40
68911;BMP180;55953;51.650;-0.522;2023-02-19T11:31:32;101945.60;;;11.40
68911;BMP180;55953;51.650;-0.522;2023-02-19T11:37:29;101940.40;;;11.50
68911;BMP180;55953;51.650;-0.522;2023-02-19T11:39:57;101930.40;;;11.60
68911;BMP180;55953;51.650;-0.522;2023-02-19T11:45:36;101929.80;;;11.72
68911;BMP180;55953;51.650;-0.522;2023-02-19T11:48:31;101924.60;;;11.80
68911;BMP180;55953;51.650;-0.522;2023-02-19T12:00:14;101924.20;;;12.20
68911;BMP180;55953;51.650;-0.522;2023-02-19T12:26:04;101878.40;;;12.60
68911;BMP180;55953;51.650;-0.522;2023-02-19T12:38:48;101877.80;;;12.70
68911;BMP180;55953;51.650;-0.522;2023-02-19T12:41:19;101882.00;;;12.90
68911;BMP180;55953;51.650;-0.522;2023-02-19T12:44:04;101876.40;;;12.90
68911;BMP180;55953;51.650;-0.522;2023-02-19T12:46:40;101869.80;;;13.00
68911;BMP180;55953;51.650;-0.522;2023-02-19T12:49:18;101866.00;;;13.06
68911;BMP180;55953;51.650;-0.522;2023-02-19T12:51:54;101856.60;;;13.10
68911;BMP180;55953;51.650;-0.522;2023-02-19T12:54:28;101856.40;;;13.10
68911;BMP180;55953;51.650;-0.522;2023-02-19T12:57:11;101853.00;;;13.14
68911;BMP180;55953;51.650;-0.522;2023-02-19T13:00:20;101855.00;;;13.00
68911;BMP180;55953;51.650;-0.522;2023-02-19T13:03:13;101857.40;;;13.00
68911;BMP180;55953;51.650;-0.522;2023-02-19T13:06:13;101841.80;;;13.02
68911;BMP180;55953;51.650;-0.522;2023-02-19T13:11:58;101837.00;;;13.00
68911;BMP180;55953;51.650;-0.522;2023-02-19T13:14:38;101833.60;;;13.00
68911;BMP180;55953;51.650;-0.522;2023-02-19T13:19:52;101835.80;;;13.00
68911;BMP180;55953;51.650;-0.522;2023-02-19T13:22:40;101839.20;;;13.00
68911;BMP180;55953;51.650;-0.522;2023-02-19T13:32:48;101833.40;;;12.94
68911;BMP180;55953;51.650;-0.522;2023-02-19T13:38:03;101830.00;;;13.20
68911;BMP180;55953;51.650;-0.522;2023-02-19T13:40:39;101828.80;;;13.20
68911;BMP180;55953;51.650;-0.522;2023-02-19T13:43:39;101838.20;;;13.28
68911;BMP180;55953;51.650;-0.522;2023-02-19T13:46:13;101844.80;;;13.30
68911;BMP180;55953;51.650;-0.522;2023-02-19T13:48:43;101844.40;;;13.20
68911;BMP180;55953;51.650;-0.522;2023-02-19T13:54:12;101830.00;;;13.20
68911;BMP180;55953;51.650;-0.522;2023-02-19T13:56:40;101818.80;;;13.10
68911;BMP180;55953;51.650;-0.522;2023-02-19T14:04:41;101831.00;;;13.10
68911;BMP180;55953;51.650;-0.522;2023-02-19T14:14:54;101813.40;;;13.10
68911;BMP180;55953;51.650;-0.522;2023-02-19T14:25:56;101806.60;;;13.20
68911;BMP180;55953;51.650;-0.522;2023-02-19T14:28:33;101805.40;;;13.30
68911;BMP180;55953;51.650;-0.522;2023-02-19T14:31:20;101811.80;;;13.38
68911;BMP180;55953;51.650;-0.522;2023-02-19T14:33:53;101816.40;;;13.30
68911;BMP180;55953;51.650;-0.522;2023-02-19T14:36:54;101812.60;;;13.30
68911;BMP180;55953;51.650;-0.522;2023-02-19T14:39:23;101817.00;;;13.30
68911;BMP180;55953;51.650;-0.522;2023-02-19T14:41:59;101817.60;;;13.30
68911;BMP180;55953;51.650;-0.522;2023-02-19T14:44:40;101816.80;;;13.40
68911;BMP180;55953;51.650;-0.522;2023-02-19T14:47:16;101813.40;;;13.40
68911;BMP180;55953;51.650;-0.522;2023-02-19T14:50:04;101807.20;;;13.40
68911;BMP180;55953;51.650;-0.522;2023-02-19T14:52:46;101814.80;;;13.40
68911;BMP180;55953;51.650;-0.522;2023-02-19T14:55:32;101817.80;;;13.40
68911;BMP180;55953;51.650;-0.522;2023-02-19T14:58:18;101810.40;;;13.40
68911;BMP180;55953;51.650;-0.522;2023-02-19T15:00:47;101804.60;;;13.40
68911;BMP180;55953;51.650;-0.522;2023-02-19T15:03:33;101800.60;;;13.50
68911;BMP180;55953;51.650;-0.522;2023-02-19T15:06:12;101796.40;;;13.50
68911;BMP180;55953;51.650;-0.522;2023-02-19T15:08:45;101792.40;;;13.60
68911;BMP180;55953;51.650;-0.522;2023-02-19T15:11:25;101788.60;;;13.60
68911;BMP180;55953;51.650;-0.522;2023-02-19T15:14:01;101784.20;;;13.60
68911;BMP180;55953;51.650;-0.522;2023-02-19T15:16:31;101780.20;;;13.68
68911;BMP180;55953;51.650;-0.522;2023-02-19T15:19:05;101780.00;;;13.60
68911;BMP180;55953;51.650;-0.522;2023-02-19T15:21:45;101777.80;;;13.60
68911;BMP180;55953;51.650;-0.522;2023-02-19T15:24:17;101778.60;;;13.64
68911;BMP180;55953;51.650;-0.522;2023-02-19T15:26:51;101772.20;;;13.70
68911;BMP180;55953;51.650;-0.522;2023-02-19T15:29:25;101771.00;;;13.70
68911;BMP180;55953;51.650;-0.522;2023-02-19T15:31:58;101776.80;;;13.72
68911;BMP180;55953;51.650;-0.522;2023-02-19T15:34:30;101770.60;;;13.70
68911;BMP180;55953;51.650;-0.522;2023-02-19T15:37:06;101761.20;;;13.70
68911;BMP180;55953;51.650;-0.522;2023-02-19T15:39:42;101748.20;;;13.70
68911;BMP180;55953;51.650;-0.522;2023-02-19T15:42:23;101743.40;;;13.60
68911;BMP180;55953;51.650;-0.522;2023-02-19T15:45:00;101740.60;;;13.70
68911;BMP180;55953;51.650;-0.522;2023-02-19T15:48:01;101738.00;;;13.70
68911;BMP180;55953;51.650;-0.522;2023-02-19T15:50:34;101734.60;;;13.70
68911;BMP180;55953;51.650;-0.522;2023-02-19T15:53:21;101734.60;;;13.70
68911;BMP180;55953;51.650;-0.522;2023-02-19T15:58:47;101737.20;;;13.70
68911;BMP180;55953;51.650;-0.522;2023-02-19T16:01:24;101729.80;;;13.70
68911;BMP180;55953;51.650;-0.522;2023-02-19T16:03:52;101726.40;;;13.70
68911;BMP180;55953;51.650;-0.522;2023-02-19T16:06:27;101722.80;;;13.70
68911;BMP180;55953;51.650;-0.522;2023-02-19T16:09:04;101714.00;;;13.70
68911;BMP180;55953;51.650;-0.522;2023-02-19T16:11:51;101718.60;;;13.64
68911;BMP180;55953;51.650;-0.522;2023-02-19T16:17:13;101707.00;;;13.50
68911;BMP180;55953;51.650;-0.522;2023-02-19T16:22:13;101708.00;;;13.40
68911;BMP180;55953;51.650;-0.522;2023-02-19T16:24:50;101704.60;;;13.30
68911;BMP180;55953;51.650;-0.522;2023-02-19T16:27:39;101705.60;;;13.24
68911;BMP180;55953;51.650;-0.522;2023-02-19T16:32:42;101700.80;;;13.10
68911;BMP180;55953;51.650;-0.522;2023-02-19T16:35:38;101695.00;;;13.00
68911;BMP180;55953;51.650;-0.522;2023-02-19T16:38:18;101699.80;;;12.92
68911;BMP180;55953;51.650;-0.522;2023-02-19T16:43:26;101698.60;;;12.80
68911;BMP180;55953;51.650;-0.522;2023-02-19T16:45:58;101698.40;;;12.70